Flight Track Log - Related Links

Times and Time Zones

All times are in EDT time to prevent confusion due to time zone crossing. See the AIP5009 flight status page for this flight to view local times or setup timezone preferences in your user account.

Time Position Orientation Groundspeed Altitude Reporting Facility
EDT Latitude Longitude Course Direction KTS MPH feet Rate Location/Type
Sat 05:03:21 AM 46.9306 -114.1169 107° East 195 224 4,100  Level Salt Lake Center
Sat 05:04:21 AM 46.9050 -114.1364 207° Southwest 146 168 7,000 2,750 Climbing Salt Lake Center
Sat 05:05:21 AM 46.8828 -114.0694 116° Southeast 176 203 9,600 2,450 Climbing Salt Lake Center
Sat 05:06:21 AM 46.8689 -113.9953 105° East 188 216 11,900 2,231 Climbing Salt Lake Center
Sat 05:07:22 AM 46.8500 -113.9208 110° East 194 223 14,100 2,083 Climbing Salt Lake Center
Sat 05:08:00 AM 46.8170 -113.5224 107° East  Level Estimated
Sat 05:08:22 AM 46.8375 -113.8431 103° East 197 227 16,100  Level Salt Lake Center
Sat 05:09:22 AM 46.8206 -113.7647 108° East 203 234 17,800 1,500 Climbing Salt Lake Center
Sat 05:10:22 AM 46.8039 -113.6817 106° East 212 244 19,100 1,300 Climbing Salt Lake Center
Sat 05:11:22 AM 46.7908 -113.6081 104° East 224 258 20,400 1,400 Climbing Salt Lake Center
Sat 05:12:22 AM 46.7742 -113.5219 106° East 222 255 21,900 1,250 Climbing Salt Lake Center
Sat 05:13:22 AM 46.7653 -113.4342 98° East 220 253 22,900 1,150 Climbing Salt Lake Center
Sat 05:14:22 AM 46.7536 -113.3417 100° East 231 266 24,200 1,000 Climbing Salt Lake Center
Sat 05:15:22 AM 46.7367 -113.2447 104° East 248 285 24,900 400 Climbing Salt Lake Center
Sat 05:16:22 AM 46.7119 -113.1408 109° East 270 311 25,000 50 Climbing Salt Lake Center
Sat 05:17:23 AM 46.6925 -113.0283 104° East 285 328 25,000  Level Salt Lake Center
Sat 05:18:23 AM 46.6753 -112.9111 102° East 296 341 25,000  Level Salt Lake Center
Sat 05:19:23 AM 46.6597 -112.7933 101° East 298 343 25,000 -50 Level Salt Lake Center
Sat 05:20:23 AM 46.6353 -112.6547 104° East 297 342 24,900  Descending Salt Lake Center
Sat 05:21:23 AM 46.6067 -112.5411 110° East 299 344 25,000 100 Climbing Salt Lake Center
Sat 05:22:23 AM 46.5831 -112.4275 107° East 296 341 25,100  Climbing Salt Lake Center
Sat 05:23:23 AM 46.5575 -112.3153 108° East 293 337 25,000 -50 Descending Salt Lake Center
Sat 05:24:23 AM 46.5389 -112.2014 103° East 292 336 25,000 50 Level Salt Lake Center
Sat 05:25:23 AM 46.5200 -112.0858 103° East 293 337 25,100 50 Climbing Salt Lake Center
Sat 05:26:23 AM 46.4981 -111.9733 106° East 293 337 25,100  Level Salt Lake Center
Sat 05:27:23 AM 46.4700 -111.8592 110° East 300 345 25,100 -50 Level Salt Lake Center
Sat 05:28:24 AM 46.4481 -111.7442 105° East 298 343 25,000 -50 Descending Salt Lake Center
Sat 05:29:24 AM 46.4358 -111.6319 99° East 288 331 25,000 -50 Level Salt Lake Center
Sat 05:30:24 AM 46.4150 -111.5153 104° East 294 338 24,900 -50 Descending Salt Lake Center
Sat 05:31:24 AM 46.4011 -111.3992 100° East 290 334 24,900 100 Level Salt Lake Center
Sat 05:32:24 AM 46.3797 -111.2808 105° East 298 343 25,100 100 Climbing Salt Lake Center
Sat 05:33:24 AM 46.3564 -111.1736 107° East 297 342 25,100  Level Salt Lake Center
Sat 05:34:24 AM 46.3200 -111.0631 115° Southeast 301 346 25,100 50 Level Salt Lake Center
Sat 05:35:24 AM 46.3022 -110.9447 102° East 295 339 25,200  Climbing Salt Lake Center
Sat 05:36:24 AM 46.2806 -110.8325 106° East 292 336 25,100 -50 Descending Salt Lake Center
Sat 05:37:24 AM 46.2553 -110.7164 107° East 300 345 25,100 -150 Level Salt Lake Center
Sat 05:38:24 AM 46.2300 -110.5997 107° East 304 350 24,800 -750 Descending Salt Lake Center
Sat 05:39:24 AM 46.2086 -110.4758 104° East 315 362 23,600 -950 Descending Salt Lake Center
Sat 05:40:24 AM 46.1833 -110.3489 106° East 328 377 22,900 -850 Descending Salt Lake Center
Sat 05:41:24 AM 46.1611 -110.2228 104° East 326 375 21,900 -1,100 Descending Salt Lake Center
Sat 05:42:24 AM 46.1381 -110.0958 105° East 328 377 20,700 -1,041 Descending Salt Lake Center
Sat 05:43:25 AM 46.1150 -109.9658 104° East 333 383 19,800 -793 Descending Salt Lake Center
Sat 05:44:25 AM 46.0922 -109.8397 105° East 329 379 19,100 -700 Descending Salt Lake Center
Sat 05:45:25 AM 46.0669 -109.7181 107° East 326 375 18,400 -700 Descending Salt Lake Center
Sat 05:46:25 AM 46.0456 -109.5967 104° East 318 366 17,700 -650 Descending Salt Lake Center
Sat 05:47:25 AM 46.0336 -109.4750 98° East 311 358 17,100 -750 Descending Salt Lake Center
Sat 05:48:25 AM 46.0100 -109.3558 106° East 315 362 16,200 -850 Descending Salt Lake Center
Sat 05:49:25 AM 45.9828 -109.2381 108° East 313 360 15,400 -850 Descending Salt Lake Center
Sat 05:50:25 AM 45.9553 -109.1086 107° East 316 364 14,500 -1,350 Descending Salt Lake Center
Sat 05:51:25 AM 45.9308 -108.9911 107° East 312 359 12,700 -1,750 Descending Salt Lake Center
Sat 05:52:25 AM 45.9061 -108.8747 107° East 309 356 11,000 -1,900 Descending Salt Lake Center
Sat 05:53:25 AM 45.8814 -108.7622 107° East 303 349 8,900 -2,200 Descending Salt Lake Center
Sat 05:54:25 AM 45.8575 -108.6500 107° East 299 344 6,600 -1,850 Descending Salt Lake Center
Sat 05:55:25 AM 45.8422 -108.5483 102° East 265 305 5,200 -1,250 Descending Salt Lake Center
Sat 05:56:25 AM 45.8136 -108.5150 141° Southeast 172 198 4,100 -850 Descending Salt Lake Center
Sat 05:57:25 AM 45.8086 -108.5550 260° West 112 129 3,500 -600 Descending Salt Lake Center
Sat 05:59:00 AM 45.8077 -108.5429 110° East  Level Estimated

Login

Don't have an account? Register now (free) for customized features, flight alerts, and more!